createdAt,value
2017-08-15T00:02:23.925Z,15.30
2017-08-15T00:04:49.988Z,15.20
2017-08-15T00:07:16.083Z,15.20
2017-08-15T00:09:42.150Z,15.30
2017-08-15T00:12:08.186Z,15.20
2017-08-15T00:14:34.228Z,15.20
2017-08-15T00:17:00.311Z,15.30
2017-08-15T00:19:26.383Z,15.20
2017-08-15T00:21:52.452Z,15.20
2017-08-15T00:24:19.230Z,15.10
2017-08-15T00:26:45.306Z,15.10
2017-08-15T00:29:11.373Z,15.10
2017-08-15T00:31:37.472Z,15.00
2017-08-15T00:34:04.304Z,14.90
2017-08-15T00:36:31.105Z,14.90
2017-08-15T00:38:57.170Z,14.80
2017-08-15T00:41:23.965Z,14.90
2017-08-15T00:43:50.044Z,14.90
2017-08-15T00:46:16.889Z,14.70
2017-08-15T00:48:43.686Z,14.70
2017-08-15T00:51:09.722Z,14.70
2017-08-15T00:53:36.150Z,14.60
2017-08-15T00:56:02.187Z,14.60
2017-08-15T00:58:28.254Z,14.60
2017-08-15T01:00:54.353Z,14.50
2017-08-15T01:03:20.404Z,14.60
2017-08-15T01:05:46.504Z,14.70
2017-08-15T01:08:13.309Z,14.70
2017-08-15T01:10:39.369Z,14.70
2017-08-15T01:13:06.193Z,14.70
2017-08-15T01:15:32.309Z,14.70
2017-08-15T01:18:05.451Z,14.70
2017-08-15T01:20:31.548Z,14.80
2017-08-15T01:22:57.601Z,14.70
2017-08-15T01:25:24.411Z,14.70
2017-08-15T01:27:51.518Z,14.70
2017-08-15T01:30:17.655Z,14.70
2017-08-15T01:32:43.724Z,14.70
2017-08-15T01:35:09.801Z,14.70
2017-08-15T01:37:47.149Z,14.70
2017-08-15T01:40:13.302Z,14.70
2017-08-15T01:42:39.357Z,14.70
2017-08-15T01:45:05.408Z,14.70
2017-08-15T01:47:31.508Z,14.70
2017-08-15T01:49:57.602Z,14.60
2017-08-15T01:52:23.695Z,14.70
2017-08-15T01:54:50.502Z,14.70
2017-08-15T01:57:16.556Z,14.70
2017-08-15T01:59:42.614Z,14.70
2017-08-15T02:02:08.674Z,14.70
2017-08-15T02:04:34.736Z,14.60
2017-08-15T02:07:01.543Z,14.60
2017-08-15T02:09:27.593Z,14.50
2017-08-15T02:11:53.686Z,14.50
2017-08-15T02:14:19.746Z,14.50
2017-08-15T02:16:45.903Z,14.50
2017-08-15T02:19:11.981Z,14.50
2017-08-15T02:21:38.036Z,14.50
2017-08-15T02:24:04.860Z,14.50
2017-08-15T02:26:30.952Z,14.50
2017-08-15T02:28:57.009Z,14.50
2017-08-15T02:31:23.066Z,14.50
2017-08-15T02:33:49.869Z,14.30
2017-08-15T02:36:15.923Z,14.30
2017-08-15T02:38:43.523Z,14.30
2017-08-15T02:41:09.586Z,14.30
2017-08-15T02:43:35.680Z,14.20
2017-08-15T02:46:01.725Z,14.20
2017-08-15T02:48:27.848Z,14.30
2017-08-15T02:50:53.882Z,14.30
2017-08-15T02:53:19.949Z,14.20
2017-08-15T02:55:46.046Z,14.20
2017-08-15T02:58:12.075Z,14.20
2017-08-15T03:00:39.651Z,14.20
2017-08-15T03:03:06.505Z,14.20
2017-08-15T03:05:32.564Z,14.20
2017-08-15T03:07:58.879Z,14.30
2017-08-15T03:10:25.023Z,14.20
2017-08-15T03:12:51.121Z,14.30
2017-08-15T03:15:17.175Z,14.30
2017-08-15T03:17:43.267Z,14.30
2017-08-15T03:20:09.307Z,14.30
2017-08-15T03:22:35.433Z,14.30
2017-08-15T03:25:01.527Z,14.40
2017-08-15T03:27:28.353Z,14.50
2017-08-15T03:29:54.443Z,14.50
2017-08-15T03:32:20.539Z,14.40
2017-08-15T03:34:46.622Z,14.30
2017-08-15T03:37:12.707Z,14.30
2017-08-15T03:39:38.749Z,14.30
2017-08-15T03:42:04.828Z,14.20
2017-08-15T03:44:30.919Z,14.20
2017-08-15T03:46:57.011Z,14.20
2017-08-15T03:49:23.067Z,14.30
2017-08-15T03:51:49.139Z,14.30
2017-08-15T03:54:15.217Z,14.30
2017-08-15T03:56:41.286Z,14.30
2017-08-15T03:59:07.336Z,14.30
2017-08-15T04:01:33.425Z,14.30
2017-08-15T04:03:59.548Z,14.30
2017-08-15T04:06:26.341Z,14.30
2017-08-15T04:08:52.440Z,14.30
2017-08-15T04:11:18.521Z,14.40
2017-08-15T04:13:44.585Z,14.40
2017-08-15T04:16:10.668Z,14.30
2017-08-15T04:18:36.759Z,14.40
2017-08-15T04:21:02.837Z,14.40
2017-08-15T04:23:29.644Z,14.60
2017-08-15T04:25:55.752Z,14.60
2017-08-15T04:28:21.861Z,14.60
2017-08-15T04:30:47.942Z,14.60
2017-08-15T04:33:13.991Z,14.70
2017-08-15T04:35:40.811Z,14.70
2017-08-15T04:38:06.878Z,14.60
2017-08-15T04:40:32.945Z,14.60
2017-08-15T04:42:59.055Z,14.70
2017-08-15T04:45:25.121Z,14.80
2017-08-15T04:47:51.931Z,14.90
2017-08-15T04:50:18.051Z,14.90
2017-08-15T04:52:44.154Z,14.90
2017-08-15T04:55:10.251Z,15.00
2017-08-15T04:57:36.357Z,15.10
2017-08-15T05:00:02.442Z,15.20
2017-08-15T05:02:28.547Z,15.40
2017-08-15T05:04:54.628Z,15.50
2017-08-15T05:07:20.670Z,15.60
2017-08-15T05:09:47.494Z,15.80
2017-08-15T05:12:13.590Z,15.80
2017-08-15T05:14:39.637Z,15.90
2017-08-15T05:17:05.704Z,15.90
2017-08-15T05:19:31.796Z,16.10
2017-08-15T05:21:57.891Z,16.20
2017-08-15T05:24:23.988Z,16.40
2017-08-15T05:26:50.054Z,16.60
2017-08-15T05:29:16.355Z,16.70
2017-08-15T05:31:42.454Z,16.90
2017-08-15T05:34:09.278Z,17.00
2017-08-15T05:36:35.340Z,17.00
2017-08-15T05:39:01.816Z,17.20
2017-08-15T05:41:27.902Z,17.30
2017-08-15T05:43:53.974Z,17.40
2017-08-15T05:46:20.052Z,17.40
2017-08-15T05:48:46.117Z,17.50
2017-08-15T05:51:12.181Z,17.70
2017-08-15T05:53:38.284Z,17.90
2017-08-15T05:56:04.530Z,17.90
2017-08-15T05:58:31.370Z,18.30
2017-08-15T06:00:58.184Z,18.30
2017-08-15T06:03:24.276Z,18.30
2017-08-15T06:05:50.336Z,18.60
2017-08-15T06:08:16.398Z,18.60
2017-08-15T06:10:42.490Z,18.90
2017-08-15T06:13:08.559Z,18.90
2017-08-15T06:15:34.650Z,19.10
2017-08-15T06:18:00.718Z,19.10
2017-08-15T06:20:26.779Z,19.20
2017-08-15T06:22:52.888Z,19.30
2017-08-15T06:25:18.951Z,19.60
2017-08-15T06:27:45.779Z,19.90
2017-08-15T06:30:11.880Z,19.90
2017-08-15T06:32:37.937Z,20.00
2017-08-15T06:35:03.982Z,20.20
2017-08-15T06:37:30.811Z,20.30
2017-08-15T06:39:56.884Z,20.30
2017-08-15T06:42:22.962Z,20.30
2017-08-15T06:44:49.039Z,20.40
2017-08-15T06:47:15.076Z,20.50
2017-08-15T06:49:41.151Z,20.60
2017-08-15T06:52:07.963Z,21.20
2017-08-15T06:54:34.034Z,21.10
2017-08-15T06:57:00.092Z,21.10
2017-08-15T06:59:26.195Z,21.10
2017-08-15T07:01:52.242Z,21.30
2017-08-15T07:04:18.366Z,21.30
2017-08-15T07:06:44.437Z,21.40
2017-08-15T07:09:10.476Z,21.40
2017-08-15T07:11:37.279Z,21.70
2017-08-15T07:14:03.339Z,21.70
2017-08-15T07:16:30.147Z,21.80
2017-08-15T07:18:56.233Z,21.80
2017-08-15T07:21:22.291Z,22.00
2017-08-15T07:23:48.358Z,22.30
2017-08-15T07:26:15.131Z,22.40
2017-08-15T07:28:41.215Z,22.40
2017-08-15T07:31:07.310Z,22.60
2017-08-15T07:33:33.353Z,22.60
2017-08-15T07:35:59.405Z,22.80
2017-08-15T07:38:26.208Z,22.80
2017-08-15T07:40:52.311Z,22.70
2017-08-15T07:43:18.369Z,22.80
2017-08-15T07:45:44.445Z,22.60
2017-08-15T07:48:10.514Z,22.90
2017-08-15T07:50:36.580Z,22.90
2017-08-15T07:53:02.640Z,23.10
2017-08-15T07:55:28.669Z,23.30
2017-08-15T07:57:54.739Z,23.60
2017-08-15T08:00:21.555Z,23.80
2017-08-15T08:02:47.625Z,23.70
2017-08-15T08:05:13.689Z,24.00
2017-08-15T08:07:39.766Z,24.00
2017-08-15T08:10:06.643Z,24.20
2017-08-15T08:12:32.700Z,24.20
2017-08-15T08:14:58.761Z,24.20
2017-08-15T08:17:25.550Z,24.40
2017-08-15T08:19:51.649Z,24.30
2017-08-15T08:22:17.684Z,24.40
2017-08-15T08:24:43.984Z,24.30
2017-08-15T08:27:10.799Z,24.70
2017-08-15T08:29:36.877Z,24.70
2017-08-15T08:32:02.974Z,24.90
2017-08-15T08:34:29.914Z,24.90
2017-08-15T08:36:56.741Z,25.00
2017-08-15T08:39:22.835Z,25.00
2017-08-15T08:41:48.880Z,25.20
2017-08-15T08:44:14.924Z,25.50
2017-08-15T08:46:41.776Z,25.40
2017-08-15T08:49:08.575Z,25.50
2017-08-15T08:51:34.635Z,25.50
2017-08-15T08:54:00.718Z,25.50
2017-08-15T08:56:26.806Z,25.70
2017-08-15T08:58:53.585Z,25.90
2017-08-15T09:01:26.743Z,25.80
2017-08-15T09:03:52.803Z,26.00
2017-08-15T09:06:18.887Z,26.10
2017-08-15T09:08:44.964Z,26.30
2017-08-15T09:11:11.031Z,26.40
2017-08-15T09:13:37.901Z,26.60
2017-08-15T09:16:03.964Z,26.60
2017-08-15T09:18:30.035Z,26.70
2017-08-15T09:20:56.113Z,26.80
2017-08-15T09:23:22.153Z,27.10
2017-08-15T09:25:48.249Z,27.20
2017-08-15T09:28:14.320Z,27.60
2017-08-15T09:30:41.122Z,27.70
2017-08-15T09:33:07.854Z,27.70
2017-08-15T09:35:34.800Z,28.20
2017-08-15T09:38:00.873Z,28.30
2017-08-15T09:40:27.711Z,28.10
2017-08-15T09:42:54.519Z,28.00
2017-08-15T09:45:20.614Z,28.00
2017-08-15T09:47:46.678Z,28.10
2017-08-15T09:50:12.776Z,28.50
2017-08-15T09:52:38.841Z,28.70
2017-08-15T09:55:04.972Z,29.00
2017-08-15T09:57:31.069Z,28.80
2017-08-15T09:59:57.129Z,28.70
2017-08-15T10:02:23.976Z,28.40
2017-08-15T10:04:50.788Z,28.20
2017-08-15T10:07:16.873Z,28.20
2017-08-15T10:09:42.968Z,28.30
2017-08-15T10:12:09.818Z,28.60
2017-08-15T10:14:36.678Z,28.30
2017-08-15T10:17:02.733Z,28.30
2017-08-15T10:19:28.793Z,28.40
2017-08-15T10:21:54.888Z,28.80
2017-08-15T10:24:20.960Z,28.30
2017-08-15T10:26:47.774Z,28.40
2017-08-15T10:29:13.861Z,28.40
2017-08-15T10:31:39.919Z,28.30
2017-08-15T10:34:06.013Z,28.20
2017-08-15T10:36:32.070Z,28.20
2017-08-15T10:38:58.143Z,28.10
2017-08-15T10:41:24.293Z,27.70
2017-08-15T10:43:50.353Z,27.60
2017-08-15T10:46:16.453Z,27.70
2017-08-15T10:48:42.577Z,27.90
2017-08-15T10:51:08.675Z,28.20
2017-08-15T10:53:34.733Z,28.20
2017-08-15T10:56:00.794Z,28.30
2017-08-15T10:58:26.849Z,28.50
2017-08-15T11:00:52.921Z,28.50
2017-08-15T11:03:19.007Z,28.30
2017-08-15T11:05:45.067Z,28.20
2017-08-15T11:08:11.133Z,28.10
2017-08-15T11:10:37.243Z,27.80
2017-08-15T11:13:03.314Z,27.80
2017-08-15T11:15:29.366Z,27.80
2017-08-15T11:17:55.453Z,27.90
2017-08-15T11:20:21.550Z,28.00
2017-08-15T11:22:47.607Z,28.10
2017-08-15T11:25:13.679Z,28.30
2017-08-15T11:27:39.756Z,28.40
2017-08-15T11:30:05.910Z,28.20
2017-08-15T11:32:32.045Z,28.30
2017-08-15T11:34:58.107Z,28.50
2017-08-15T11:37:24.163Z,28.50
2017-08-15T11:39:51.082Z,28.60
2017-08-15T11:42:17.911Z,28.70
2017-08-15T11:44:43.985Z,28.70
2017-08-15T11:47:10.094Z,29.20
2017-08-15T11:49:36.177Z,30.10
2017-08-15T11:52:02.247Z,31.00
2017-08-15T11:54:28.301Z,32.00
2017-08-15T11:56:54.364Z,31.40
2017-08-15T11:59:20.433Z,31.60
2017-08-15T12:01:46.527Z,32.20
2017-08-15T12:04:13.352Z,34.90
2017-08-15T12:06:39.423Z,34.80
2017-08-15T12:09:05.552Z,35.70
2017-08-15T12:11:31.628Z,37.50
2017-08-15T12:13:57.726Z,37.60
2017-08-15T12:16:23.772Z,39.40
2017-08-15T12:18:49.855Z,40.40
2017-08-15T12:21:15.917Z,39.50
2017-08-15T12:23:41.998Z,38.30
2017-08-15T12:26:08.073Z,37.60
2017-08-15T12:28:34.450Z,35.90
2017-08-15T12:31:00.651Z,35.20
2017-08-15T12:33:26.801Z,34.50
2017-08-15T12:35:53.605Z,37.80
2017-08-15T12:38:19.690Z,37.70
2017-08-15T12:40:45.746Z,37.90
2017-08-15T12:43:11.874Z,38.30
2017-08-15T12:45:37.999Z,38.90
2017-08-15T12:48:04.071Z,38.40
2017-08-15T12:50:30.126Z,37.60
2017-08-15T12:52:56.176Z,39.00
2017-08-15T12:55:22.258Z,39.30
2017-08-15T12:57:48.340Z,39.80
2017-08-15T13:00:14.424Z,41.20
2017-08-15T13:02:40.622Z,40.80
2017-08-15T13:05:07.448Z,42.20
2017-08-15T13:07:33.506Z,42.10
2017-08-15T13:09:59.630Z,42.90
2017-08-15T13:12:25.706Z,43.70
2017-08-15T13:14:51.770Z,42.80
2017-08-15T13:17:17.845Z,43.40
2017-08-15T13:19:43.944Z,43.90
2017-08-15T13:22:10.102Z,43.60
2017-08-15T13:24:36.192Z,43.30
2017-08-15T13:27:02.295Z,43.30
2017-08-15T13:29:29.077Z,42.70
2017-08-15T13:31:55.146Z,42.60
2017-08-15T13:34:21.344Z,41.00
2017-08-15T13:36:47.471Z,42.00
2017-08-15T13:39:13.542Z,42.40
2017-08-15T13:41:39.630Z,42.30
2017-08-15T13:44:05.692Z,43.60
2017-08-15T13:46:32.526Z,44.10
2017-08-15T13:48:59.392Z,45.20
2017-08-15T13:51:25.437Z,45.10
2017-08-15T13:53:51.554Z,45.30
2017-08-15T13:56:17.665Z,45.40
2017-08-15T13:58:43.727Z,45.70
2017-08-15T14:01:09.832Z,45.30
2017-08-15T14:03:35.898Z,45.80
2017-08-15T14:06:01.973Z,44.60
2017-08-15T14:08:28.072Z,43.50
2017-08-15T14:10:54.922Z,44.80
2017-08-15T14:13:21.758Z,44.70
2017-08-15T14:15:48.593Z,44.50
2017-08-15T14:18:14.689Z,44.60
2017-08-15T14:20:40.736Z,44.20
2017-08-15T14:23:06.894Z,43.90
2017-08-15T14:25:33.790Z,41.50
2017-08-15T14:27:59.911Z,41.50
2017-08-15T14:30:25.991Z,39.20
2017-08-15T14:32:52.144Z,38.90
2017-08-15T14:35:18.251Z,38.10
2017-08-15T14:37:44.337Z,36.90
2017-08-15T14:40:10.444Z,35.80
2017-08-15T14:42:36.543Z,35.60
2017-08-15T14:45:02.683Z,35.40
2017-08-15T14:47:28.826Z,35.20
2017-08-15T14:49:54.901Z,35.70
2017-08-15T14:52:20.993Z,35.00
2017-08-15T14:54:47.120Z,35.30
2017-08-15T14:57:13.229Z,36.00
2017-08-15T14:59:39.327Z,36.20
2017-08-15T15:02:05.511Z,37.80
2017-08-15T15:04:32.377Z,39.80
2017-08-15T15:06:58.465Z,39.80
2017-08-15T15:09:24.589Z,39.80
2017-08-15T15:11:50.751Z,41.10
2017-08-15T15:14:17.591Z,41.60
2017-08-15T15:16:44.517Z,42.00
2017-08-15T15:19:10.638Z,41.90
2017-08-15T15:21:36.746Z,42.80
2017-08-15T15:24:02.880Z,41.60
2017-08-15T15:26:29.008Z,41.30
2017-08-15T15:28:55.139Z,41.30
2017-08-15T15:31:23.544Z,40.90
2017-08-15T15:33:49.738Z,39.70
2017-08-15T15:36:15.825Z,39.70
2017-08-15T15:38:41.943Z,41.60
2017-08-15T15:41:08.126Z,42.20
2017-08-15T15:43:34.327Z,42.00
2017-08-15T15:46:00.452Z,42.50
2017-08-15T15:48:26.619Z,41.70
2017-08-15T15:50:52.812Z,41.80
2017-08-15T15:53:18.966Z,42.00
2017-08-15T15:55:45.156Z,42.60
2017-08-15T15:58:11.308Z,41.10
2017-08-15T16:00:37.412Z,40.10
2017-08-15T16:03:03.532Z,39.90
2017-08-15T16:05:29.686Z,39.80
2017-08-15T16:07:56.662Z,39.40
2017-08-15T16:10:23.687Z,39.30
2017-08-15T16:12:49.858Z,39.30
2017-08-15T16:15:15.958Z,38.30
2017-08-15T16:17:42.098Z,38.40
2017-08-15T16:20:08.914Z,37.50
2017-08-15T16:22:34.972Z,37.50
2017-08-15T16:25:01.824Z,37.00
2017-08-15T16:27:27.906Z,37.00
2017-08-15T16:29:53.969Z,38.20
2017-08-15T16:32:20.088Z,38.10
2017-08-15T16:34:46.982Z,38.80
2017-08-15T16:37:13.168Z,38.80
2017-08-15T16:39:39.274Z,38.10
2017-08-15T16:42:06.305Z,36.90
2017-08-15T16:44:32.599Z,36.90
2017-08-15T16:46:58.775Z,35.80
2017-08-15T16:49:26.263Z,35.00
2017-08-15T16:51:52.345Z,35.00
2017-08-15T16:54:18.548Z,34.70
2017-08-15T16:56:44.696Z,34.40
2017-08-15T16:59:10.903Z,33.90
2017-08-15T17:01:37.253Z,33.70
2017-08-15T17:04:03.390Z,33.20
2017-08-15T17:06:29.591Z,32.90
2017-08-15T17:08:56.343Z,32.30
2017-08-15T17:11:22.481Z,31.50
2017-08-15T17:13:48.609Z,30.70
2017-08-15T17:16:14.714Z,30.40
2017-08-15T17:18:40.846Z,30.10
2017-08-15T17:21:06.996Z,29.60
2017-08-15T17:23:33.352Z,29.50
2017-08-15T17:25:59.527Z,29.40
2017-08-15T17:28:25.590Z,29.00
2017-08-15T17:30:52.469Z,28.80
2017-08-15T17:33:18.579Z,28.80
2017-08-15T17:35:44.638Z,28.60
2017-08-15T17:38:10.704Z,28.50
2017-08-15T17:40:36.786Z,28.30
2017-08-15T17:43:02.840Z,28.20
2017-08-15T17:45:29.057Z,28.20
2017-08-15T17:47:56.136Z,28.10
2017-08-15T17:50:22.194Z,28.00
2017-08-15T17:52:48.288Z,27.80
2017-08-15T17:55:15.128Z,27.40
2017-08-15T17:57:42.198Z,27.40
2017-08-15T18:00:08.314Z,27.20
2017-08-15T18:02:35.171Z,26.90
2017-08-15T18:05:01.266Z,26.90
2017-08-15T18:07:27.380Z,26.80
2017-08-15T18:09:53.470Z,26.70
2017-08-15T18:12:19.725Z,26.60
2017-08-15T18:14:45.793Z,26.50
2017-08-15T18:17:12.603Z,26.30
2017-08-15T18:19:38.733Z,26.30
2017-08-15T18:22:04.806Z,26.20
2017-08-15T18:24:30.863Z,26.20
2017-08-15T18:26:56.976Z,26.20
2017-08-15T18:29:23.059Z,26.00
2017-08-15T18:31:49.863Z,25.70
2017-08-15T18:34:15.941Z,25.70
2017-08-15T18:36:42.002Z,25.60
2017-08-15T18:39:08.088Z,25.50
2017-08-15T18:41:34.241Z,25.30
2017-08-15T18:44:00.379Z,25.30
2017-08-15T18:46:26.463Z,25.20
2017-08-15T18:48:53.363Z,25.00
2017-08-15T18:51:19.444Z,25.00
2017-08-15T18:53:45.513Z,25.00
2017-08-15T18:56:11.607Z,24.90
2017-08-15T18:58:37.708Z,24.90
2017-08-15T19:01:04.683Z,24.70
2017-08-15T19:03:30.789Z,24.70
2017-08-15T19:05:57.605Z,24.50
2017-08-15T19:08:23.710Z,24.50
2017-08-15T19:10:49.768Z,24.50
2017-08-15T19:13:16.609Z,24.30
2017-08-15T19:15:43.496Z,24.20
2017-08-15T19:18:10.333Z,24.20
2017-08-15T19:20:36.616Z,24.10
2017-08-15T19:23:02.952Z,24.00
2017-08-15T19:25:29.004Z,23.90
2017-08-15T19:27:55.088Z,23.90
2017-08-15T19:30:21.187Z,23.80
2017-08-15T19:32:47.285Z,23.70
2017-08-15T19:35:13.419Z,23.70
2017-08-15T19:37:39.647Z,23.80
2017-08-15T19:40:05.833Z,23.80
2017-08-15T19:42:32.154Z,23.90
2017-08-15T19:44:58.331Z,23.80
2017-08-15T19:47:24.419Z,23.80
2017-08-15T19:49:50.534Z,23.80
2017-08-15T19:52:16.721Z,23.70
2017-08-15T19:54:42.832Z,23.60
2017-08-15T19:57:08.938Z,23.50
2017-08-15T19:59:35.736Z,23.50
2017-08-15T20:02:01.824Z,23.50
2017-08-15T20:04:27.926Z,23.50
2017-08-15T20:06:55.646Z,23.40
2017-08-15T20:09:21.738Z,23.40
2017-08-15T20:11:47.830Z,23.30
2017-08-15T20:14:13.993Z,23.30
2017-08-15T20:16:40.141Z,23.30
2017-08-15T20:19:06.425Z,23.30
2017-08-15T20:21:33.343Z,23.30
2017-08-15T20:23:59.499Z,23.30
2017-08-15T20:26:26.454Z,23.10
2017-08-15T20:28:53.391Z,23.00
2017-08-15T20:31:20.269Z,22.80
2017-08-15T20:33:46.371Z,22.70
2017-08-15T20:36:13.219Z,22.60
2017-08-15T20:38:39.324Z,22.50
2017-08-15T20:41:06.122Z,22.60
2017-08-15T20:43:32.191Z,22.60
2017-08-15T20:45:58.273Z,22.60
2017-08-15T20:48:24.371Z,22.60
2017-08-15T20:50:50.529Z,22.50
2017-08-15T20:53:16.685Z,22.40
2017-08-15T20:55:42.779Z,22.30
2017-08-15T20:58:08.862Z,22.20
2017-08-15T21:00:35.685Z,22.10
2017-08-15T21:03:01.765Z,22.00
2017-08-15T21:05:27.895Z,22.10
2017-08-15T21:07:53.961Z,22.10
2017-08-15T21:10:20.079Z,22.10
2017-08-15T21:12:46.156Z,22.00
2017-08-15T21:15:12.227Z,22.00
2017-08-15T21:17:38.379Z,22.00
2017-08-15T21:20:05.217Z,21.90
2017-08-15T21:22:32.038Z,21.80
2017-08-15T21:24:58.170Z,21.80
2017-08-15T21:27:24.239Z,21.80
2017-08-15T21:29:50.316Z,21.80
2017-08-15T21:32:16.695Z,21.80
2017-08-15T21:34:43.782Z,21.80
2017-08-15T21:37:09.887Z,21.80
2017-08-15T21:39:35.978Z,21.80
2017-08-15T21:42:02.808Z,21.80
2017-08-15T21:44:28.886Z,21.70
2017-08-15T21:46:54.969Z,21.70
2017-08-15T21:49:21.801Z,21.60
2017-08-15T21:51:47.904Z,21.60
2017-08-15T21:54:13.975Z,21.60
2017-08-15T21:56:40.073Z,21.50
2017-08-15T21:59:06.189Z,21.50
2017-08-15T22:01:38.400Z,21.50
2017-08-15T22:04:04.476Z,21.50
2017-08-15T22:06:30.559Z,21.40
2017-08-15T22:08:56.648Z,21.30
2017-08-15T22:11:22.764Z,21.20
2017-08-15T22:13:48.833Z,21.20
2017-08-15T22:16:14.912Z,21.20
2017-08-15T22:18:41.001Z,21.20
2017-08-15T22:21:08.006Z,21.20
2017-08-15T22:23:34.835Z,21.20
2017-08-15T22:26:00.941Z,21.20
2017-08-15T22:28:27.001Z,21.20
2017-08-15T22:30:53.844Z,21.30
2017-08-15T22:33:20.689Z,21.30
2017-08-15T22:35:47.599Z,21.30
2017-08-15T22:38:13.675Z,21.30
2017-08-15T22:40:39.769Z,21.40
2017-08-15T22:43:05.849Z,21.30
2017-08-15T22:45:31.961Z,21.40
2017-08-15T22:47:58.059Z,21.30
2017-08-15T22:50:24.926Z,21.20
2017-08-15T22:52:51.025Z,21.20
2017-08-15T22:55:17.842Z,21.30
2017-08-15T22:57:43.897Z,21.30
2017-08-15T23:00:10.734Z,21.50
2017-08-15T23:02:37.569Z,21.50
2017-08-15T23:05:03.659Z,21.40
2017-08-15T23:07:29.845Z,21.40
2017-08-15T23:09:56.670Z,21.40
2017-08-15T23:12:22.762Z,21.40
2017-08-15T23:14:48.844Z,21.40
2017-08-15T23:17:14.936Z,21.30
2017-08-15T23:19:41.062Z,21.30
2017-08-15T23:22:07.100Z,21.30
2017-08-15T23:24:34.003Z,21.30
2017-08-15T23:27:01.102Z,21.20
2017-08-15T23:29:27.957Z,21.30
2017-08-15T23:31:54.049Z,21.30
2017-08-15T23:34:20.141Z,21.30
2017-08-15T23:36:46.217Z,21.30
2017-08-15T23:39:13.070Z,21.30
2017-08-15T23:41:39.900Z,21.40
2017-08-15T23:44:06.686Z,21.40
2017-08-15T23:46:32.774Z,21.40
2017-08-15T23:48:59.568Z,21.40
2017-08-15T23:51:25.623Z,21.30
2017-08-15T23:53:51.697Z,21.30
2017-08-15T23:56:17.758Z,21.30
2017-08-15T23:58:43.820Z,21.40
